Time;durP1;ratioP1;P1;durP2;ratioP2;P2;SDS_P1;SDS_P2;PMS_P1;PMS_P2;Temp;Humidity;BMP_temperature;BMP_pressure;BME280_temperature;BME280_humidity;BME280_pressure;Samples;Min_cycle;Max_cycle;Signal;HPM_P1;HPM_P2
2022/12/01 00:00:38;;;;;;;63.42;42.83;;;20.60;53.60;;;;;;4961306;28;20527;-77
2022/12/01 00:03:04;;;;;;;58.17;42.72;;;20.60;53.00;;;;;;4963280;28;20089;-77
2022/12/01 00:05:30;;;;;;;61.42;41.53;;;20.70;53.10;;;;;;4961219;28;20023;-77
2022/12/01 00:07:58;;;;;;;57.53;43.38;;;20.60;53.00;;;;;;4961501;28;20038;-77
2022/12/01 00:10:24;;;;;;;55.47;41.40;;;20.60;53.10;;;;;;4963159;28;20061;-78
2022/12/01 00:12:55;;;;;;;58.38;41.25;;;20.60;53.00;;;;;;4962550;28;20031;-77
2022/12/01 00:15:22;;;;;;;55.97;41.67;;;20.60;53.10;;;;;;4960234;28;20113;-77
2022/12/01 00:17:48;;;;;;;58.60;40.38;;;20.60;53.00;;;;;;4962174;28;20108;-78
2022/12/01 00:20:16;;;;;;;53.00;40.03;;;20.60;53.30;;;;;;4963104;28;20027;-78
2022/12/01 00:22:46;;;;;;;55.83;40.78;;;20.60;53.40;;;;;;4961349;28;20503;-77
2022/12/01 00:25:13;;;;;;;55.58;40.42;;;20.60;53.40;;;;;;4961877;28;20549;-77
2022/12/01 00:27:39;;;;;;;52.97;39.55;;;20.60;53.40;;;;;;4961762;28;20387;-78
2022/12/01 00:30:09;;;;;;;52.88;39.28;;;20.60;53.30;;;;;;4960938;28;20051;-78
2022/12/01 00:32:34;;;;;;;50.85;36.42;;;20.60;53.50;;;;;;4961379;28;20107;-78
2022/12/01 00:35:01;;;;;;;50.15;38.25;;;20.60;53.60;;;;;;4963038;28;20610;-78
2022/12/01 00:37:29;;;;;;;53.65;39.63;;;20.60;53.60;;;;;;4961348;28;20402;-78
2022/12/01 00:39:56;;;;;;;52.80;37.03;;;20.60;53.60;;;;;;4959747;28;20339;-78
2022/12/01 00:42:21;;;;;;;53.78;38.70;;;20.60;53.60;;;;;;4961681;28;20027;-78
2022/12/01 00:44:47;;;;;;;53.35;38.33;;;20.50;53.60;;;;;;4961790;28;20031;-78
2022/12/01 00:47:13;;;;;;;53.03;38.33;;;20.60;53.60;;;;;;4961204;28;20027;-77
2022/12/01 00:49:39;;;;;;;54.60;38.47;;;20.50;53.80;;;;;;4963253;28;20045;-78
2022/12/01 00:52:05;;;;;;;48.20;36.50;;;20.60;53.90;;;;;;4960231;28;20415;-77
2022/12/01 00:54:31;;;;;;;51.05;37.63;;;20.50;53.90;;;;;;4960164;28;20038;-77
2022/12/01 00:57:00;;;;;;;51.90;37.25;;;20.50;54.00;;;;;;4962337;28;20526;-78
2022/12/01 00:59:25;;;;;;;47.60;35.95;;;20.50;54.10;;;;;;4960189;28;20151;-78
2022/12/01 01:01:51;;;;;;;49.80;36.65;;;20.50;54.00;;;;;;4960242;28;20501;-78
2022/12/01 01:04:18;;;;;;;46.67;36.80;;;20.50;54.00;;;;;;4964144;28;20127;-78
2022/12/01 01:06:44;;;;;;;49.40;37.42;;;20.50;53.80;;;;;;4966961;28;20483;-77
2022/12/01 01:09:11;;;;;;;49.25;35.85;;;20.50;54.00;;;;;;4966426;28;20037;-77
2022/12/01 01:11:37;;;;;;;50.40;35.97;;;20.50;54.10;;;;;;4962255;28;20089;-77
2022/12/01 01:14:03;;;;;;;48.53;36.08;;;20.50;53.90;;;;;;4960312;28;20046;-77
2022/12/01 01:16:29;;;;;;;47.85;35.30;;;20.50;53.80;;;;;;4960929;28;20027;-77
2022/12/01 01:18:56;;;;;;;45.88;34.85;;;20.60;53.80;;;;;;4959157;28;20029;-77
2022/12/01 01:21:23;;;;;;;46.25;33.83;;;20.60;53.80;;;;;;4939860;28;20079;-76
2022/12/01 01:23:50;;;;;;;45.25;33.70;;;20.50;53.80;;;;;;4959033;28;20027;-77
2022/12/01 01:26:18;;;;;;;49.13;35.13;;;20.60;53.70;;;;;;4961918;28;20401;-77
2022/12/01 01:28:45;;;;;;;47.40;34.60;;;20.60;53.80;;;;;;4961743;28;20376;-77
2022/12/01 01:31:14;;;;;;;46.80;34.28;;;20.50;53.90;;;;;;4960571;28;20422;-77
2022/12/01 01:33:40;;;;;;;46.55;33.13;;;20.60;53.90;;;;;;4962277;28;20050;-78
2022/12/01 01:36:06;;;;;;;45.42;33.42;;;20.50;54.10;;;;;;4958284;28;20026;-77
2022/12/01 01:38:33;;;;;;;48.13;34.65;;;20.50;54.10;;;;;;4961211;28;20035;-77
2022/12/01 01:40:59;;;;;;;43.70;33.38;;;20.50;53.90;;;;;;4975924;23;20054;-75
2022/12/01 01:43:43;;;;;;;42.75;32.90;;;20.50;54.10;;;;;;4958182;28;20027;-75
2022/12/01 01:46:18;;;;;;;44.72;32.30;;;20.50;54.10;;;;;;4978221;28;20430;-77
2022/12/01 01:48:55;;;;;;;44.85;33.65;;;20.50;54.30;;;;;;4966329;28;20049;-77
2022/12/01 01:51:37;;;;;;;47.15;33.35;;;20.50;54.30;;;;;;4971681;28;20031;-77
2022/12/01 01:54:23;;;;;;;44.83;32.55;;;20.50;54.20;;;;;;4971525;28;20468;-78
2022/12/01 01:56:51;;;;;;;42.33;32.13;;;20.50;54.50;;;;;;4972095;28;20034;-77
2022/12/01 01:59:25;;;;;;;45.15;32.80;;;20.50;54.20;;;;;;4971815;28;20570;-77
2022/12/01 02:02:05;;;;;;;40.78;30.75;;;20.50;54.20;;;;;;4974682;28;20427;-78
2022/12/01 02:04:31;;;;;;;;;;;20.50;54.00;;;;;;4972989;28;20078;-77
2022/12/01 02:06:57;;;;;;;45.08;32.22;;;20.50;54.50;;;;;;4971675;28;20015;-77
2022/12/01 02:09:23;;;;;;;40.67;31.17;;;20.50;54.30;;;;;;4981099;28;20117;-77
2022/12/01 02:12:28;;;;;;;40.38;31.15;;;20.50;54.30;;;;;;4964007;28;20390;-78
2022/12/01 02:15:32;;;;;;;40.70;29.85;;;20.50;54.10;;;;;;4973774;28;20026;-77
2022/12/01 02:18:04;;;;;;;43.50;31.52;;;20.50;54.40;;;;;;4970464;28;20053;-77
2022/12/01 02:21:10;;;;;;;41.20;30.58;;;20.50;54.40;;;;;;4973824;28;20058;-77
2022/12/01 02:24:00;;;;;;;41.97;30.25;;;20.50;54.40;;;;;;4989259;28;20042;-78
2022/12/01 02:26:32;;;;;;;39.30;28.98;;;20.50;54.40;;;;;;4971643;28;20025;-77
2022/12/01 02:29:29;;;;;;;44.90;30.60;;;20.50;54.20;;;;;;4957213;28;20039;-77
2022/12/01 02:32:07;;;;;;;40.58;28.50;;;20.50;54.20;;;;;;4974443;28;20479;-77
2022/12/01 02:34:49;;;;;;;39.50;29.63;;;20.50;54.40;;;;;;4972903;28;20078;-77
2022/12/01 02:37:35;;;;;;;39.00;28.75;;;20.50;54.60;;;;;;4974085;28;20058;-77
2022/12/01 02:40:15;;;;;;;40.10;29.65;;;20.50;54.90;;;;;;4956537;28;20399;-76
2022/12/01 02:42:55;;;;;;;40.53;29.38;;;20.50;54.30;;;;;;4974232;28;20019;-76
2022/12/01 02:45:49;;;;;;;39.08;29.20;;;20.50;54.60;;;;;;4974083;28;20038;-75
2022/12/01 02:48:33;;;;;;;38.88;28.48;;;20.50;54.70;;;;;;4972972;28;20118;-77
2022/12/01 02:51:11;;;;;;;38.55;27.13;;;20.50;54.50;;;;;;4972698;28;20043;-75
2022/12/01 02:53:37;;;;;;;41.92;29.83;;;20.50;54.30;;;;;;4972734;28;20108;-75
2022/12/01 02:56:06;;;;;;;42.35;29.00;;;20.50;54.70;;;;;;4972656;28;20031;-74
2022/12/01 02:58:32;;;;;;;37.90;27.88;;;20.40;54.70;;;;;;4972468;28;20511;-75
2022/12/01 03:01:17;;;;;;;39.22;28.83;;;20.50;54.60;;;;;;4972688;28;20369;-74
2022/12/01 03:04:01;;;;;;;38.05;28.10;;;20.50;54.60;;;;;;4972446;28;20027;-76
2022/12/01 03:07:02;;;;;;;37.95;27.85;;;20.50;55.10;;;;;;4972073;28;20037;-76
2022/12/01 03:09:40;;;;;;;39.53;27.00;;;20.40;54.70;;;;;;4973524;28;20141;-77
2022/12/01 03:12:27;;;;;;;35.53;26.98;;;20.40;54.90;;;;;;4973745;28;20037;-77
2022/12/01 03:15:06;;;;;;;38.17;27.67;;;20.50;55.00;;;;;;4965601;28;20427;-74
2022/12/01 03:17:45;;;;;;;124.53;83.10;;;20.50;54.50;;;;;;4978530;28;20035;-71
2022/12/01 03:20:35;;;;;;;109.50;74.90;;;20.40;52.40;;;;;;4984756;28;20027;-75
2022/12/01 03:23:09;;;;;;;98.30;67.07;;;20.00;44.00;;;;;;4973363;28;20035;-76
2022/12/01 03:25:38;;;;;;;94.40;60.50;;;19.90;45.60;;;;;;4954174;28;20055;-76
2022/12/01 03:28:05;;;;;;;85.97;56.58;;;20.00;46.90;;;;;;4969098;28;20590;-76
2022/12/01 03:30:36;;;;;;;82.95;55.90;;;20.00;48.50;;;;;;4953946;28;20114;-76
2022/12/01 03:33:09;;;;;;;77.50;53.45;;;20.10;49.10;;;;;;4953122;29;20051;-76
2022/12/01 03:35:44;;;;;;;74.00;51.58;;;20.20;49.60;;;;;;4952820;29;20027;-76
2022/12/01 03:38:22;;;;;;;72.38;50.13;;;20.20;49.50;;;;;;4954085;28;20452;-76
2022/12/01 03:40:51;;;;;;;71.65;48.85;;;20.30;49.80;;;;;;4953808;28;20035;-76
2022/12/01 03:43:22;;;;;;;69.30;48.87;;;20.30;50.10;;;;;;4954207;28;20066;-76
2022/12/01 03:46:05;;;;;;;69.50;48.15;;;20.30;50.20;;;;;;4953868;28;20267;-76
2022/12/01 03:48:31;;;;;;;66.70;48.63;;;20.30;50.10;;;;;;4954222;28;20046;-76
2022/12/01 03:51:15;;;;;;;65.80;45.45;;;20.30;50.30;;;;;;4953785;28;20031;-76
2022/12/01 03:53:48;;;;;;;64.15;45.50;;;20.30;50.50;;;;;;4952675;29;20410;-76
2022/12/01 03:56:19;;;;;;;68.90;45.95;;;20.30;50.70;;;;;;4952315;29;20403;-76
2022/12/01 03:58:50;;;;;;;63.97;46.83;;;20.30;51.00;;;;;;4953988;28;20031;-76
2022/12/01 04:01:15;;;;;;;61.50;45.10;;;20.30;50.80;;;;;;4968558;28;20024;-76
2022/12/01 04:03:45;;;;;;;57.13;42.83;;;20.40;51.00;;;;;;4953852;28;20027;-76
2022/12/01 04:06:11;;;;;;;61.13;43.38;;;20.40;51.20;;;;;;4953119;28;20051;-76
2022/12/01 04:08:37;;;;;;;63.70;44.70;;;20.40;51.00;;;;;;4952014;28;20066;-76
2022/12/01 04:12:28;;;;;;;61.33;42.85;;;20.40;51.50;;;;;;4936359;29;20475;-76
2022/12/01 04:13:49;;;;;;;58.50;42.33;;;20.40;51.40;;;;;;4953354;28;20035;-77
2022/12/01 04:16:14;;;;;;;58.28;42.78;;;20.40;51.80;;;;;;4952791;28;20058;-77
2022/12/01 04:18:40;;;;;;;61.70;43.05;;;20.30;51.80;;;;;;4952219;29;20487;-77
2022/12/01 04:21:06;;;;;;;57.20;41.30;;;20.30;51.90;;;;;;4953036;28;20035;-76
2022/12/01 04:26:16;;;;;;;57.75;41.00;;;20.40;52.10;;;;;;4952786;29;20041;-76
2022/12/01 04:28:42;;;;;;;56.63;41.17;;;20.30;52.30;;;;;;4951992;29;20031;-76
2022/12/01 04:31:07;;;;;;;56.63;39.63;;;20.30;52.30;;;;;;4953141;28;20027;-76
2022/12/01 04:33:33;;;;;;;55.83;41.15;;;20.30;52.40;;;;;;4951840;29;20035;-75
2022/12/01 04:35:59;;;;;;;54.05;39.40;;;20.30;52.60;;;;;;4952928;28;20059;-76
2022/12/01 04:38:26;;;;;;;54.15;40.17;;;20.30;52.40;;;;;;4952013;29;20407;-76
2022/12/01 04:40:52;;;;;;;54.45;40.08;;;20.30;52.60;;;;;;4951736;28;20066;-76
2022/12/01 04:43:17;;;;;;;51.55;38.65;;;20.40;52.50;;;;;;4952111;29;20062;-76
2022/12/01 04:45:43;;;;;;;50.25;37.88;;;20.40;52.70;;;;;;4952948;28;20077;-76
2022/12/01 04:48:09;;;;;;;52.05;38.45;;;20.40;53.00;;;;;;4953050;29;20398;-76
2022/12/01 04:50:35;;;;;;;50.55;37.30;;;20.40;53.50;;;;;;4952962;28;20031;-76
2022/12/01 04:53:01;;;;;;;51.95;36.47;;;20.40;52.70;;;;;;4952593;28;20027;-76
2022/12/01 04:55:26;;;;;;;63.22;36.80;;;20.40;52.80;;;;;;4951592;29;20137;-76
2022/12/01 04:57:52;;;;;;;49.55;36.20;;;20.40;52.80;;;;;;4952707;28;20032;-76
2022/12/01 05:00:18;;;;;;;48.42;36.22;;;20.40;52.90;;;;;;4951477;28;20031;-76
2022/12/01 05:02:44;;;;;;;49.65;36.88;;;20.40;53.00;;;;;;4935895;29;20036;-76
2022/12/01 05:05:11;;;;;;;53.78;38.13;;;20.40;52.60;;;;;;4951611;29;20046;-76
2022/12/01 05:07:36;;;;;;;51.20;36.53;;;20.40;52.90;;;;;;4952215;29;20035;-75
2022/12/01 05:10:03;;;;;;;50.45;38.25;;;20.40;52.90;;;;;;4952764;28;20074;-75
2022/12/01 05:12:29;;;;;;;48.83;35.20;;;20.40;53.10;;;;;;4952747;28;20035;-75
2022/12/01 05:14:55;;;;;;;54.40;36.05;;;20.40;53.00;;;;;;4952921;28;20035;-75
2022/12/01 05:17:21;;;;;;;47.70;35.50;;;20.40;53.30;;;;;;4952288;28;20035;-75
2022/12/01 05:22:31;;;;;;;47.38;34.72;;;20.30;53.70;;;;;;4956282;29;20027;-78
2022/12/01 05:24:57;;;;;;;44.42;33.22;;;20.40;53.20;;;;;;4957117;28;20051;-77
2022/12/01 05:27:22;;;;;;;49.22;34.85;;;20.40;53.50;;;;;;4956058;28;20487;-77
2022/12/01 05:29:48;;;;;;;49.97;35.13;;;20.40;53.50;;;;;;4956275;28;20070;-77
2022/12/01 05:32:14;;;;;;;44.65;33.58;;;20.40;53.70;;;;;;4955195;29;20042;-77
2022/12/01 05:34:39;;;;;;;44.58;33.15;;;20.40;53.40;;;;;;4954903;29;20039;-77
2022/12/01 05:37:05;;;;;;;46.03;34.53;;;20.40;53.50;;;;;;4956061;28;20095;-77
2022/12/01 05:39:31;;;;;;;47.40;34.22;;;20.30;53.60;;;;;;4956012;28;20066;-76
2022/12/01 05:41:57;;;;;;;47.13;33.35;;;20.30;53.50;;;;;;4954745;29;20050;-77
2022/12/01 05:44:22;;;;;;;50.03;33.90;;;20.30;53.60;;;;;;4956148;28;20035;-77
2022/12/01 05:46:48;;;;;;;48.30;32.75;;;20.30;53.60;;;;;;4955821;28;20034;-77
2022/12/01 05:49:14;;;;;;;47.15;33.28;;;20.30;53.80;;;;;;4955623;28;20038;-77
2022/12/01 05:51:42;;;;;;;49.20;33.78;;;20.40;53.70;;;;;;4955993;28;20387;-77
2022/12/01 05:54:08;;;;;;;47.55;33.03;;;20.30;53.50;;;;;;4955793;28;20097;-76
2022/12/01 05:56:33;;;;;;;43.72;32.15;;;20.40;53.90;;;;;;4955545;29;20475;-77
2022/12/01 05:58:59;;;;;;;44.15;32.67;;;20.30;53.80;;;;;;4955552;28;20035;-76
2022/12/01 06:01:25;;;;;;;44.85;32.97;;;20.40;53.70;;;;;;4955787;28;20075;-76
2022/12/01 06:03:52;;;;;;;42.78;32.42;;;20.40;53.40;;;;;;4955448;28;20158;-76
2022/12/01 06:06:18;;;;;;;40.88;31.50;;;20.40;53.70;;;;;;4955453;28;20028;-76
2022/12/01 06:08:44;;;;;;;43.67;32.05;;;20.40;53.40;;;;;;4954568;29;20035;-76
2022/12/01 06:11:10;;;;;;;42.88;32.95;;;20.40;53.40;;;;;;4954185;28;20102;-76
2022/12/01 06:13:35;;;;;;;46.25;32.03;;;20.40;53.30;;;;;;4955480;28;20031;-76
2022/12/01 06:16:04;;;;;;;43.13;32.60;;;20.40;53.30;;;;;;4955376;28;20109;-76
2022/12/01 06:18:32;;;;;;;41.05;31.15;;;20.40;53.50;;;;;;4955450;28;20381;-77
2022/12/01 06:20:58;;;;;;;43.65;31.75;;;20.40;53.50;;;;;;4955565;28;20102;-76
2022/12/01 06:23:23;;;;;;;42.78;30.73;;;20.40;53.80;;;;;;4955096;28;20439;-76
2022/12/01 06:25:49;;;;;;;41.13;30.88;;;20.40;53.80;;;;;;4955201;28;20024;-76
2022/12/01 06:28:15;;;;;;;42.40;29.45;;;20.40;53.80;;;;;;4969996;28;20066;-76
2022/12/01 06:30:42;;;;;;;40.47;29.95;;;20.40;54.00;;;;;;4954427;28;20035;-76
2022/12/01 06:33:08;;;;;;;42.80;30.40;;;20.40;54.00;;;;;;4953737;28;20031;-77
2022/12/01 06:35:34;;;;;;;43.90;30.38;;;20.30;54.00;;;;;;4953862;29;20074;-76
2022/12/01 06:38:00;;;;;;;40.45;30.00;;;20.30;54.00;;;;;;4953712;29;20028;-76
2022/12/01 06:40:26;;;;;;;41.00;29.48;;;20.30;53.70;;;;;;4953417;28;20032;-76
2022/12/01 06:42:52;;;;;;;39.92;30.65;;;20.40;54.00;;;;;;4954085;29;20045;-76
2022/12/01 06:45:18;;;;;;;40.20;29.80;;;20.30;54.10;;;;;;4971470;28;20027;-77
2022/12/01 06:47:46;;;;;;;40.10;30.45;;;20.30;54.10;;;;;;4970916;28;20047;-77
2022/12/01 06:50:12;;;;;;;45.42;30.25;;;20.30;54.10;;;;;;4973002;28;20372;-77
2022/12/01 06:52:38;;;;;;;45.38;30.10;;;20.30;54.10;;;;;;4973030;28;20150;-76
2022/12/01 06:55:05;;;;;;;44.35;28.90;;;20.30;54.30;;;;;;4972329;28;20034;-77
2022/12/01 06:57:31;;;;;;;42.80;29.95;;;20.30;54.40;;;;;;4972113;28;20031;-77
2022/12/01 06:59:57;;;;;;;46.97;29.88;;;20.30;54.40;;;;;;4972273;28;20561;-76
2022/12/01 07:02:23;;;;;;;45.60;29.27;;;20.30;54.20;;;;;;4972892;28;20027;-77
2022/12/01 07:04:48;;;;;;;44.22;29.65;;;20.30;54.00;;;;;;4972502;28;20046;-77
2022/12/01 07:07:14;;;;;;;41.28;27.73;;;20.30;54.30;;;;;;4972965;28;20035;-77
2022/12/01 07:09:40;;;;;;;39.72;29.17;;;20.30;54.00;;;;;;4973560;28;20027;-77
2022/12/01 07:12:06;;;;;;;43.58;28.75;;;20.30;54.20;;;;;;4972392;28;20030;-77
2022/12/01 07:14:32;;;;;;;40.70;30.10;;;20.30;54.50;;;;;;4972105;28;20034;-77
2022/12/01 07:16:58;;;;;;;41.05;28.38;;;20.30;54.30;;;;;;4973370;28;20035;-77
2022/12/01 07:19:24;;;;;;;46.47;28.60;;;20.30;54.20;;;;;;4973104;28;20034;-76
2022/12/01 07:21:49;;;;;;;39.65;27.23;;;20.30;54.10;;;;;;4973787;28;20027;-76
2022/12/01 07:24:16;;;;;;;39.80;29.52;;;20.30;53.80;;;;;;4973261;28;20035;-76
2022/12/01 07:26:42;;;;;;;41.47;27.38;;;20.30;54.00;;;;;;4973401;28;20106;-76
2022/12/01 07:29:09;;;;;;;40.85;28.63;;;20.40;54.10;;;;;;4972437;28;20038;-77
2022/12/01 07:31:36;;;;;;;42.25;28.65;;;20.40;53.80;;;;;;4971757;28;20034;-76
2022/12/01 07:34:02;;;;;;;41.90;28.48;;;20.40;54.20;;;;;;4940372;28;20093;-76
2022/12/01 07:36:28;;;;;;;47.92;28.63;;;20.40;54.00;;;;;;4972780;28;20046;-76
2022/12/01 07:38:53;;;;;;;46.17;27.98;;;20.40;54.40;;;;;;4973161;28;20442;-77
2022/12/01 07:41:19;;;;;;;66.97;31.13;;;20.40;54.80;;;;;;5006427;23;20062;-75
2022/12/01 07:43:49;;;;;;;43.55;30.05;;;20.40;55.80;;;;;;4989483;28;20085;-75
2022/12/01 07:46:20;;;;;;;44.92;32.45;;;20.50;55.80;;;;;;4991303;28;20054;-75
2022/12/01 07:48:46;;;;;;;49.17;30.80;;;20.50;56.00;;;;;;4992638;28;20041;-76
2022/12/01 07:51:16;;;;;;;51.58;30.65;;;20.60;56.20;;;;;;5007296;28;20022;-73
2022/12/01 07:53:44;;;;;;;112.20;79.88;;;20.60;56.30;;;;;;4991862;28;20053;-72
2022/12/01 07:56:10;;;;;;;111.57;79.35;;;20.30;47.20;;;;;;4991714;28;20105;-75
2022/12/01 07:58:36;;;;;;;101.72;73.65;;;19.90;42.70;;;;;;4992137;28;20121;-75
2022/12/01 08:01:10;;;;;;;98.00;68.25;;;19.80;45.80;;;;;;4991985;28;20026;-73
2022/12/01 08:03:37;;;;;;;107.07;72.28;;;20.00;47.10;;;;;;4988574;28;20458;-75
2022/12/01 08:06:04;;;;;;;132.15;69.22;;;20.00;46.20;;;;;;4975008;28;20029;-76
2022/12/01 08:08:31;;;;;;;105.97;64.30;;;20.00;45.80;;;;;;4975403;28;20034;-74
2022/12/01 17:46:57;;;;;;;27.42;21.92;;;19.90;52.40;;;;;;5076157;28;20412;-73
2022/12/01 17:49:23;;;;;;;28.90;21.75;;;20.10;53.00;;;;;;5080523;28;20036;-74
2022/12/01 17:51:49;;;;;;;36.03;22.90;;;20.20;52.90;;;;;;5089250;22;20435;-75
2022/12/01 17:54:15;;;;;;;33.47;21.38;;;20.20;52.90;;;;;;5069919;28;20029;-75
2022/12/01 17:56:41;;;;;;;35.90;21.63;;;20.20;53.00;;;;;;5064724;28;20032;-74
2022/12/01 17:59:07;;;;;;;29.15;20.88;;;20.20;52.90;;;;;;5064019;28;20031;-75
2022/12/01 18:01:33;;;;;;;32.17;22.17;;;20.20;53.00;;;;;;5048549;28;20024;-75
2022/12/01 18:03:59;;;;;;;30.23;21.90;;;20.10;53.00;;;;;;5065380;28;20035;-75
2022/12/01 18:06:25;;;;;;;29.10;21.10;;;20.10;53.10;;;;;;5048001;28;20485;-76
2022/12/01 18:08:52;;;;;;;30.10;22.30;;;20.20;53.40;;;;;;5065863;28;20099;-76
2022/12/01 18:11:19;;;;;;;34.85;21.50;;;20.20;53.40;;;;;;5076590;28;20474;-76
2022/12/01 18:13:47;;;;;;;30.08;21.90;;;20.20;53.10;;;;;;5086201;28;20064;-75
2022/12/01 18:16:19;;;;;;;29.33;22.42;;;20.20;53.20;;;;;;5072048;28;20025;-75
2022/12/01 18:18:45;;;;;;;35.05;21.20;;;20.20;53.20;;;;;;5065882;28;20021;-74
2022/12/01 18:21:13;;;;;;;27.35;21.17;;;20.20;53.60;;;;;;5064433;28;20051;-74
2022/12/01 18:23:40;;;;;;;30.70;20.85;;;20.20;53.30;;;;;;5065827;28;20025;-74
2022/12/01 18:26:09;;;;;;;30.83;21.45;;;20.20;53.30;;;;;;5063068;28;20029;-75
2022/12/01 18:28:35;;;;;;;31.27;21.57;;;20.20;53.30;;;;;;5060721;28;20067;-76
2022/12/01 18:31:04;;;;;;;35.55;21.88;;;20.20;53.40;;;;;;5065025;28;20024;-76
2022/12/01 18:33:34;;;;;;;33.08;20.15;;;20.20;53.60;;;;;;5067609;28;20525;-75
2022/12/01 18:36:00;;;;;;;34.05;21.90;;;20.20;53.50;;;;;;5067428;28;20112;-76
2022/12/01 18:38:27;;;;;;;32.38;22.30;;;20.20;53.60;;;;;;5065840;28;20028;-76
2022/12/01 18:40:59;;;;;;;33.13;21.25;;;20.20;53.60;;;;;;5067603;28;20035;-76
2022/12/01 18:43:27;;;;;;;38.63;22.42;;;20.20;53.60;;;;;;5061813;28;20028;-76
2022/12/01 18:45:53;;;;;;;30.80;22.17;;;20.20;53.60;;;;;;5065363;28;20036;-75
2022/12/01 18:48:20;;;;;;;35.97;23.25;;;20.20;53.60;;;;;;5053679;28;20537;-75
2022/12/01 18:50:46;;;;;;;35.85;21.88;;;20.20;53.70;;;;;;5053851;28;20397;-75
2022/12/01 18:53:12;;;;;;;34.13;21.58;;;20.20;53.80;;;;;;5052949;28;20067;-76
2022/12/01 18:55:38;;;;;;;35.72;22.42;;;20.20;53.90;;;;;;5052804;28;20362;-76
2022/12/01 18:58:04;;;;;;;30.95;21.10;;;20.20;53.70;;;;;;5053706;28;20075;-75
2022/12/01 19:00:30;;;;;;;33.78;22.02;;;20.20;53.80;;;;;;5053863;28;20367;-76
2022/12/01 19:02:56;;;;;;;33.78;21.88;;;20.20;53.70;;;;;;5036178;28;20029;-76
2022/12/01 19:05:22;;;;;;;31.67;20.77;;;20.20;53.60;;;;;;5036148;28;20478;-76
2022/12/01 19:07:48;;;;;;;32.80;21.75;;;20.20;53.60;;;;;;5035886;28;20041;-76
2022/12/01 19:10:14;;;;;;;32.30;21.15;;;20.20;53.70;;;;;;5036109;28;20048;-76
2022/12/01 19:12:40;;;;;;;33.33;21.35;;;20.20;53.70;;;;;;5035705;28;20029;-75
2022/12/01 19:15:06;;;;;;;33.47;21.73;;;20.20;53.70;;;;;;5052262;28;20036;-76
2022/12/01 19:17:32;;;;;;;33.97;21.27;;;20.20;53.70;;;;;;5053280;28;20056;-76
2022/12/01 19:19:58;;;;;;;32.42;21.15;;;20.20;53.80;;;;;;5052064;28;20486;-75
2022/12/01 19:22:24;;;;;;;33.78;21.52;;;20.20;53.80;;;;;;5052181;28;20597;-76
2022/12/01 19:24:50;;;;;;;33.33;21.80;;;20.20;53.70;;;;;;5052345;28;20104;-75
2022/12/01 19:27:17;;;;;;;38.38;21.60;;;20.20;53.70;;;;;;5051881;28;20035;-76
2022/12/01 19:29:42;;;;;;;34.78;22.15;;;20.20;53.80;;;;;;5035517;28;20392;-75
2022/12/01 19:32:08;;;;;;;36.88;22.42;;;20.20;53.80;;;;;;5052013;28;20116;-76
2022/12/01 19:34:34;;;;;;;38.55;22.13;;;20.20;53.90;;;;;;5035216;28;20060;-75
2022/12/01 19:37:01;;;;;;;36.38;21.60;;;20.20;53.70;;;;;;5051579;28;20025;-75
2022/12/01 19:39:27;;;;;;;36.78;21.98;;;20.20;53.80;;;;;;5053217;28;20390;-76
2022/12/01 19:41:55;;;;;;;33.92;21.00;;;20.20;53.80;;;;;;5051882;28;20028;-76
2022/12/01 19:44:20;;;;;;;33.55;21.52;;;20.20;53.80;;;;;;5053226;28;20021;-75
2022/12/01 19:46:47;;;;;;;31.08;21.67;;;20.20;53.70;;;;;;5051541;28;20056;-76
2022/12/01 19:49:13;;;;;;;34.70;21.85;;;20.20;53.70;;;;;;5052899;28;20064;-76
2022/12/01 19:51:39;;;;;;;32.65;20.70;;;20.20;53.80;;;;;;5052655;28;20029;-75
2022/12/01 19:54:11;;;;;;;35.90;21.25;;;20.20;53.80;;;;;;5049610;28;20021;-77
2022/12/01 19:56:37;;;;;;;37.13;21.92;;;20.20;53.80;;;;;;5051117;28;20039;-76
2022/12/01 19:59:06;;;;;;;38.58;21.75;;;20.30;53.90;;;;;;5051673;28;20028;-77
2022/12/01 20:01:32;;;;;;;33.80;22.00;;;20.20;54.00;;;;;;5052726;28;20103;-76
2022/12/01 20:03:59;;;;;;;37.03;21.35;;;20.20;53.90;;;;;;5052561;28;20033;-76
2022/12/01 20:06:28;;;;;;;34.92;22.25;;;20.20;54.00;;;;;;5051222;28;20044;-76
2022/12/01 20:08:55;;;;;;;35.70;22.00;;;20.30;54.30;;;;;;5052648;28;20025;-76
2022/12/01 20:11:21;;;;;;;36.47;20.13;;;20.30;54.10;;;;;;5052630;28;20430;-76
2022/12/01 20:13:48;;;;;;;35.88;21.45;;;20.30;54.40;;;;;;5052665;28;20234;-76
2022/12/01 20:16:14;;;;;;;33.92;20.70;;;20.30;54.40;;;;;;5052297;28;20509;-76
2022/12/01 20:18:40;;;;;;;38.55;21.35;;;20.30;54.20;;;;;;5052325;28;20110;-76
2022/12/01 20:21:15;;;;;;;34.47;20.85;;;20.30;54.80;;;;;;5052638;28;20122;-75
2022/12/01 20:23:41;;;;;;;40.03;22.90;;;20.30;54.40;;;;;;5052403;28;20021;-76
2022/12/01 20:26:07;;;;;;;29.95;19.90;;;20.30;54.30;;;;;;5051132;28;20060;-76
2022/12/01 20:28:35;;;;;;;33.78;20.55;;;20.30;54.50;;;;;;5052048;28;20466;-75
2022/12/01 20:31:01;;;;;;;34.63;21.58;;;20.20;54.30;;;;;;5052389;28;20028;-77
2022/12/01 20:33:27;;;;;;;32.65;21.10;;;20.30;54.40;;;;;;5051946;28;20385;-76
2022/12/01 20:35:53;;;;;;;34.40;20.58;;;20.30;55.60;;;;;;5052056;28;20029;-76
2022/12/01 20:38:22;;;;;;;33.08;20.52;;;20.40;56.20;;;;;;5051897;28;20031;-77
2022/12/01 20:40:50;;;;;;;38.78;20.13;;;20.40;56.80;;;;;;5050638;28;20024;-76
2022/12/01 20:43:16;;;;;;;39.60;21.80;;;20.50;57.40;;;;;;5051854;28;20021;-76
2022/12/01 20:45:42;;;;;;;47.30;22.25;;;20.50;58.00;;;;;;5051450;28;20321;-75
